Time;durP1;ratioP1;P1;durP2;ratioP2;P2;SDS_P1;SDS_P2;PMS_P1;PMS_P2;Temp;Humidity;BMP_temperature;BMP_pressure;BME280_temperature;BME280_humidity;BME280_pressure;Samples;Min_cycle;Max_cycle;Signal;HPM_P1;HPM_P2
2022/03/12 00:00:00;;;;;;;8.67;7.77;;;;;;;4.78;nan;98229.91;5036502;28;20571;-72
2022/03/12 00:02:30;;;;;;;10.20;7.93;;;;;;;4.77;nan;98236.16;5036476;28;20205;-71
2022/03/12 00:04:56;;;;;;;10.63;7.57;;;;;;;4.74;nan;98227.81;5036669;28;20279;-72
2022/03/12 00:07:23;;;;;;;15.07;8.13;;;;;;;4.75;nan;98234.72;5036764;28;20209;-72
2022/03/12 00:09:50;;;;;;;12.53;7.87;;;;;;;4.76;nan;98244.25;5036720;28;20209;-72
2022/03/12 00:12:18;;;;;;;9.97;7.77;;;;;;;4.74;nan;98238.34;5036924;28;20210;-72
2022/03/12 00:14:45;;;;;;;9.67;7.67;;;;;;;4.75;nan;98243.41;5036548;28;20218;-72
2022/03/12 00:17:12;;;;;;;9.13;7.60;;;;;;;4.72;nan;98249.03;5036607;28;20305;-72
2022/03/12 00:19:41;;;;;;;14.80;7.63;;;;;;;4.71;nan;98241.31;5036701;28;20206;-72
2022/03/12 00:22:09;;;;;;;11.07;7.37;;;;;;;4.71;nan;98247.38;5036518;28;20217;-72
2022/03/12 00:24:40;;;;;;;11.07;7.37;;;;;;;4.68;nan;98246.94;5036328;28;20222;-72
2022/03/12 00:27:08;;;;;;;10.00;7.43;;;;;;;4.80;nan;98256.84;5036413;28;20198;-72
2022/03/12 00:29:35;;;;;;;10.07;7.70;;;;;;;4.72;nan;98254.31;5036025;28;20688;-72
2022/03/12 00:32:04;;;;;;;11.10;7.57;;;;;;;4.83;nan;98260.94;5034934;28;20619;-72
2022/03/12 00:34:31;;;;;;;9.97;7.20;;;;;;;4.83;nan;98256.50;5036746;28;20226;-72
2022/03/12 00:36:58;;;;;;;11.33;8.07;;;;;;;4.84;nan;98257.34;5036204;28;20213;-72
2022/03/12 00:39:24;;;;;;;10.87;7.47;;;;;;;4.95;nan;98254.25;5035900;28;20564;-72
2022/03/12 00:41:50;;;;;;;10.20;8.20;;;;;;;4.91;nan;98252.97;5036206;28;20202;-72
2022/03/12 00:44:17;;;;;;;9.33;7.87;;;;;;;4.82;nan;98249.63;5035985;28;20233;-72
2022/03/12 00:46:44;;;;;;;10.07;8.03;;;;;;;4.91;nan;98250.34;5035776;28;20210;-72
2022/03/12 00:49:11;;;;;;;9.40;7.93;;;;;;;4.85;nan;98258.97;5036024;28;20206;-72
2022/03/12 00:51:38;;;;;;;9.90;7.93;;;;;;;4.75;nan;98256.56;5035991;28;20206;-72
2022/03/12 00:54:05;;;;;;;9.97;7.00;;;;;;;4.70;nan;98255.50;5035436;28;20570;-72
2022/03/12 00:56:32;;;;;;;14.27;8.10;;;;;;;4.75;nan;98255.78;5035836;28;20206;-72
2022/03/12 00:58:59;;;;;;;10.03;7.30;;;;;;;4.79;nan;98252.59;5035770;28;20309;-72
2022/03/12 01:01:29;;;;;;;11.63;7.40;;;;;;;4.74;nan;98252.31;5035511;28;20697;-72
2022/03/12 01:03:55;;;;;;;9.87;7.23;;;;;;;4.74;nan;98244.41;5035622;28;20226;-72
2022/03/12 01:06:22;;;;;;;10.03;7.33;;;;;;;4.80;nan;98248.94;5035657;28;20217;-72
2022/03/12 01:08:48;;;;;;;9.23;7.03;;;;;;;4.78;nan;98243.06;5035690;28;20216;-72
2022/03/12 01:11:15;;;;;;;11.60;7.30;;;;;;;4.79;nan;98238.63;5035613;28;20296;-72
2022/03/12 01:13:41;;;;;;;9.57;7.20;;;;;;;4.81;nan;98247.97;5035490;28;20229;-72
2022/03/12 01:16:09;;;;;;;9.20;6.97;;;;;;;4.75;nan;98245.25;5035792;28;20217;-72
2022/03/12 01:18:39;;;;;;;8.73;7.27;;;;;;;4.72;nan;98246.41;5035718;28;20212;-72
2022/03/12 01:21:11;;;;;;;8.43;7.00;;;;;;;4.76;nan;98241.59;5035389;28;20210;-72
2022/03/12 01:23:38;;;;;;;14.13;7.43;;;;;;;4.75;nan;98239.97;5035208;28;20591;-72
2022/03/12 01:26:04;;;;;;;9.67;7.37;;;;;;;4.67;nan;98243.50;5035197;28;20226;-72
2022/03/12 01:28:31;;;;;;;9.80;7.40;;;;;;;4.67;nan;98232.13;5034802;28;20212;-72
2022/03/12 01:30:58;;;;;;;9.23;6.97;;;;;;;4.65;nan;98237.56;5035221;28;20251;-71
2022/03/12 01:33:24;;;;;;;11.40;7.23;;;;;;;4.62;nan;98237.91;5034737;28;20592;-72
2022/03/12 01:35:51;;;;;;;8.63;6.57;;;;;;;4.63;nan;98246.66;5035667;28;20587;-72
2022/03/12 01:38:17;;;;;;;11.37;7.10;;;;;;;4.62;nan;98237.13;5035070;28;20206;-72
2022/03/12 01:40:43;;;;;;;10.17;7.40;;;;;;;4.65;nan;98240.22;5035060;28;20210;-72
2022/03/12 01:43:10;;;;;;;11.80;6.90;;;;;;;4.63;nan;98244.00;5034819;28;20209;-72
2022/03/12 01:45:36;;;;;;;9.87;6.67;;;;;;;4.65;nan;98244.66;5034863;28;20226;-72
2022/03/12 01:48:05;;;;;;;10.23;7.27;;;;;;;4.59;nan;98253.25;5035165;28;20206;-71
2022/03/12 01:50:34;;;;;;;10.37;7.17;;;;;;;4.60;nan;98245.19;5034861;28;20237;-71
2022/03/12 01:53:04;;;;;;;11.23;7.33;;;;;;;4.57;nan;98250.78;5034499;28;20221;-72
2022/03/12 01:55:31;;;;;;;9.07;6.57;;;;;;;4.52;nan;98247.06;5034606;28;20269;-71
2022/03/12 01:58:01;;;;;;;9.57;6.93;;;;;;;4.50;nan;98238.50;5034934;28;20206;-72
2022/03/12 02:00:28;;;;;;;11.50;7.20;;;;;;;4.52;nan;98239.19;5034361;28;20248;-72
2022/03/12 02:02:54;;;;;;;9.83;6.40;;;;;;;4.51;nan;98235.72;5034589;28;20210;-72
2022/03/12 02:05:27;;;;;;;14.77;6.93;;;;;;;4.53;nan;98238.97;5034432;28;20230;-72
2022/03/12 02:07:53;;;;;;;11.93;6.90;;;;;;;4.59;nan;98237.47;5034218;28;20209;-71
2022/03/12 02:10:20;;;;;;;12.87;7.43;;;;;;;4.62;nan;98235.28;5034188;28;20665;-72
2022/03/12 02:12:47;;;;;;;10.67;6.87;;;;;;;4.61;nan;98232.84;5033285;28;20263;-72
2022/03/12 02:15:15;;;;;;;13.03;7.00;;;;;;;4.64;nan;98235.09;5034334;28;20239;-72
2022/03/12 02:17:41;;;;;;;9.37;6.97;;;;;;;4.69;nan;98241.50;5034044;28;20742;-72
2022/03/12 02:20:08;;;;;;;9.17;6.93;;;;;;;4.71;nan;98238.69;5034307;28;20209;-72
2022/03/12 02:22:34;;;;;;;9.47;7.17;;;;;;;4.70;nan;98239.69;5034283;28;20202;-72
2022/03/12 02:25:00;;;;;;;12.70;7.33;;;;;;;4.60;nan;98231.19;5034140;28;20232;-72
2022/03/12 02:27:27;;;;;;;10.67;7.23;;;;;;;4.54;nan;98242.44;5034081;28;20202;-72
2022/03/12 02:29:54;;;;;;;10.87;6.67;;;;;;;4.54;nan;98245.06;5034122;28;20213;-71
2022/03/12 02:32:20;;;;;;;9.33;7.30;;;;;;;4.52;nan;98244.44;5033801;28;20202;-72
2022/03/12 02:34:49;;;;;;;8.23;6.70;;;;;;;4.50;nan;98241.16;5033722;28;20703;-72
2022/03/12 02:37:28;;;;;;;10.93;6.87;;;;;;;4.45;nan;98256.66;5034290;28;20209;-72
2022/03/12 02:39:55;;;;;;;11.77;6.67;;;;;;;4.37;nan;98260.16;5034021;28;20189;-72
2022/03/12 02:42:23;;;;;;;9.87;6.73;;;;;;;4.38;nan;98263.63;5033968;28;20202;-72
2022/03/12 02:44:50;;;;;;;11.10;7.00;;;;;;;4.40;nan;98262.47;5033808;28;20229;-72
2022/03/12 02:47:22;;;;;;;10.03;7.17;;;;;;;4.33;nan;98258.88;5033908;28;20202;-72
2022/03/12 02:49:57;;;;;;;10.53;6.60;;;;;;;4.40;nan;98259.00;5034056;28;20210;-72
2022/03/12 02:52:27;;;;;;;8.30;6.60;;;;;;;4.34;nan;98257.06;5033489;28;20216;-72
2022/03/12 02:54:55;;;;;;;13.73;6.93;;;;;;;4.31;nan;98260.06;5032717;28;20806;-72
2022/03/12 02:57:23;;;;;;;11.73;6.93;;;;;;;4.30;nan;98263.69;5048698;28;20755;-72
2022/03/12 02:59:53;;;;;;;11.23;6.80;;;;;;;4.24;nan;98265.19;5033730;28;20209;-71
2022/03/12 03:02:25;;;;;;;10.23;6.63;;;;;;;4.25;nan;98260.75;5033380;28;20619;-71
2022/03/12 03:04:52;;;;;;;12.40;6.67;;;;;;;4.21;nan;98270.00;5033572;28;20233;-72
2022/03/12 03:07:18;;;;;;;11.83;6.83;;;;;;;4.18;nan;98270.31;5033600;28;20201;-72
2022/03/12 03:09:45;;;;;;;11.37;7.23;;;;;;;4.15;nan;98266.22;5033287;28;20206;-71
2022/03/12 03:12:13;;;;;;;7.93;6.33;;;;;;;4.19;nan;98270.16;5033577;28;20201;-72
2022/03/12 03:14:41;;;;;;;10.30;7.40;;;;;;;4.16;nan;98277.59;5033506;28;20264;-72
2022/03/12 03:17:11;;;;;;;8.60;6.80;;;;;;;4.30;nan;98276.84;5033200;28;20669;-72
2022/03/12 03:19:39;;;;;;;13.23;6.90;;;;;;;4.19;nan;98279.84;5033523;28;20195;-72
2022/03/12 03:22:06;;;;;;;9.63;7.07;;;;;;;4.17;nan;98281.84;5034293;28;20210;-71
2022/03/12 03:24:33;;;;;;;9.73;7.00;;;;;;;4.16;nan;98281.00;5033272;28;20233;-72
2022/03/12 03:27:00;;;;;;;9.33;7.13;;;;;;;4.19;nan;98285.94;5034174;28;20214;-72
2022/03/12 03:29:30;;;;;;;11.27;6.80;;;;;;;4.18;nan;98296.63;5033130;28;20213;-72
2022/03/12 03:32:00;;;;;;;7.67;6.87;;;;;;;4.17;nan;98285.31;5033403;28;20202;-72
2022/03/12 03:34:26;;;;;;;9.77;7.27;;;;;;;4.17;nan;98292.38;5033040;28;20704;-72
2022/03/12 03:36:53;;;;;;;13.37;7.60;;;;;;;4.15;nan;98296.97;5033035;28;20699;-72
2022/03/12 03:39:19;;;;;;;10.73;6.67;;;;;;;4.12;nan;98306.03;5033368;28;20206;-72
2022/03/12 03:41:46;;;;;;;10.20;7.20;;;;;;;4.12;nan;98300.75;5033369;28;20210;-72
2022/03/12 03:44:13;;;;;;;10.43;7.23;;;;;;;4.10;nan;98305.41;5033239;28;20226;-73
2022/03/12 03:46:40;;;;;;;11.47;7.57;;;;;;;4.11;nan;98300.97;5032897;28;20225;-72
2022/03/12 03:49:07;;;;;;;9.40;7.17;;;;;;;4.09;nan;98295.88;5033249;28;20202;-72
2022/03/12 03:51:37;;;;;;;9.77;7.03;;;;;;;4.10;nan;98304.56;5033078;28;20213;-72
2022/03/12 03:54:08;;;;;;;9.10;7.03;;;;;;;4.07;nan;98299.66;5033135;28;20233;-72
2022/03/12 03:56:35;;;;;;;9.80;7.03;;;;;;;4.00;nan;98309.22;5033149;28;20273;-72
2022/03/12 03:59:02;;;;;;;11.90;7.20;;;;;;;4.00;nan;98301.34;5033117;28;20212;-72
2022/03/12 04:01:28;;;;;;;10.23;7.10;;;;;;;3.97;nan;98312.22;5032767;28;20575;-72
2022/03/12 04:03:57;;;;;;;12.43;7.47;;;;;;;3.89;nan;98313.03;5033235;28;20229;-72
2022/03/12 04:06:25;;;;;;;13.27;7.43;;;;;;;3.83;nan;98313.75;5034903;28;20229;-72
2022/03/12 04:08:52;;;;;;;8.70;7.60;;;;;;;3.82;nan;98308.63;5036696;28;20256;-72
2022/03/12 04:11:23;;;;;;;9.00;7.20;;;;;;;3.82;nan;98309.47;5037086;28;20209;-72
2022/03/12 04:13:51;;;;;;;9.37;6.80;;;;;;;3.75;nan;98311.13;5036588;28;20237;-72
2022/03/12 04:16:19;;;;;;;8.67;6.90;;;;;;;3.73;nan;98307.03;5036902;28;20248;-72
2022/03/12 04:18:46;;;;;;;8.40;7.07;;;;;;;3.69;nan;98308.34;5036526;28;20206;-72
2022/03/12 04:21:14;;;;;;;8.43;6.63;;;;;;;3.68;nan;98304.09;5036205;28;20709;-72
2022/03/12 04:23:46;;;;;;;8.87;6.37;;;;;;;3.62;nan;98310.03;5037163;28;20226;-73
2022/03/12 04:26:13;;;;;;;8.50;6.87;;;;;;;3.60;nan;98302.31;5036058;28;20226;-72
2022/03/12 04:28:41;;;;;;;8.70;7.23;;;;;;;3.60;nan;98301.47;5036631;28;20214;-73
2022/03/12 04:31:09;;;;;;;11.80;7.00;;;;;;;3.57;nan;98302.66;5036426;28;20259;-72
2022/03/12 04:33:38;;;;;;;10.50;7.07;;;;;;;3.59;nan;98305.94;5036250;28;20209;-72
2022/03/12 04:36:05;;;;;;;9.83;6.87;;;;;;;3.58;nan;98304.31;5037142;28;20202;-72
2022/03/12 04:38:32;;;;;;;10.83;6.43;;;;;;;3.54;nan;98312.69;5035950;28;20210;-72
2022/03/12 04:40:58;;;;;;;10.50;6.67;;;;;;;3.50;nan;98316.63;5036114;28;20221;-72
2022/03/12 04:43:27;;;;;;;10.17;7.37;;;;;;;3.52;nan;98322.56;5035659;28;20206;-72
2022/03/12 04:45:55;;;;;;;9.23;6.50;;;;;;;3.51;nan;98328.78;5035964;28;20229;-72
2022/03/12 04:48:23;;;;;;;10.83;6.80;;;;;;;3.46;nan;98320.59;5035857;28;20221;-72
2022/03/12 04:50:53;;;;;;;9.53;7.27;;;;;;;3.48;nan;98324.69;5035547;28;20665;-72
2022/03/12 04:53:21;;;;;;;9.00;6.90;;;;;;;3.56;nan;98318.56;5036023;28;20202;-72
2022/03/12 04:55:48;;;;;;;7.83;6.83;;;;;;;3.61;nan;98327.59;5035645;28;20237;-72
2022/03/12 04:58:15;;;;;;;11.63;7.83;;;;;;;3.66;nan;98337.63;5035782;28;20578;-72
2022/03/12 05:00:42;;;;;;;11.60;7.20;;;;;;;3.70;nan;98338.94;5035797;28;20206;-72
2022/03/12 05:03:15;;;;;;;7.80;6.70;;;;;;;3.70;nan;98344.19;5035710;28;20216;-72
2022/03/12 05:05:44;;;;;;;11.30;7.50;;;;;;;3.72;nan;98337.78;5035424;28;20229;-72
2022/03/12 05:08:22;;;;;;;10.57;7.00;;;;;;;3.74;nan;98337.59;5035541;28;20205;-72
2022/03/12 05:10:51;;;;;;;10.73;7.50;;;;;;;3.80;nan;98339.56;5035615;28;20655;-72
2022/03/12 05:13:22;;;;;;;9.60;6.93;;;;;;;3.76;nan;98346.94;5035512;28;20252;-72
2022/03/12 05:15:50;;;;;;;9.87;6.97;;;;;;;3.78;nan;98362.56;5035506;28;20186;-72
2022/03/12 05:18:18;;;;;;;7.67;6.13;;;;;;;3.82;nan;98358.59;5034879;28;20205;-72
2022/03/12 05:20:46;;;;;;;7.87;6.47;;;;;;;3.81;nan;98367.50;5035407;28;20216;-72
2022/03/12 05:23:12;;;;;;;10.13;6.87;;;;;;;3.78;nan;98365.19;5035313;28;20202;-73
2022/03/12 05:25:40;;;;;;;8.90;6.60;;;;;;;3.76;nan;98370.59;5035181;28;20226;-72
2022/03/12 05:28:08;;;;;;;11.97;7.13;;;;;;;3.77;nan;98371.44;5035269;28;20213;-72
2022/03/12 05:30:34;;;;;;;9.27;6.67;;;;;;;3.76;nan;98369.81;5034943;28;20212;-72
2022/03/12 05:33:01;;;;;;;14.30;6.83;;;;;;;3.76;nan;98375.88;5034865;28;20209;-73
2022/03/12 05:35:27;;;;;;;8.93;6.70;;;;;;;3.76;nan;98381.13;5035056;28;20240;-72
2022/03/12 05:37:54;;;;;;;8.40;6.30;;;;;;;3.78;nan;98384.44;5034993;28;20210;-72
2022/03/12 05:40:25;;;;;;;9.73;6.60;;;;;;;3.78;nan;98378.34;5034989;28;20212;-72
2022/03/12 05:42:55;;;;;;;8.43;6.20;;;;;;;3.80;nan;98389.53;5034979;28;20205;-72
2022/03/12 05:45:23;;;;;;;9.87;6.90;;;;;;;3.81;nan;98378.84;5034802;28;20236;-72
2022/03/12 05:47:50;;;;;;;9.80;7.37;;;;;;;3.83;nan;98381.28;5035419;28;20205;-72
2022/03/12 05:50:18;;;;;;;10.47;6.90;;;;;;;3.87;nan;98382.59;5035110;28;20545;-72
2022/03/12 05:52:49;;;;;;;13.20;6.67;;;;;;;3.79;nan;98387.88;5034753;28;20557;-72
2022/03/12 05:55:18;;;;;;;10.77;6.40;;;;;;;3.91;nan;98392.63;5034292;28;20238;-72
2022/03/12 05:57:45;;;;;;;8.90;6.33;;;;;;;3.81;nan;98393.78;5034651;28;20209;-72
2022/03/12 06:00:13;;;;;;;11.30;7.27;;;;;;;3.74;nan;98398.06;5034624;28;20288;-72
2022/03/12 06:02:51;;;;;;;7.83;6.27;;;;;;;3.72;nan;98390.38;5034704;28;20296;-72
2022/03/12 06:05:21;;;;;;;10.03;6.57;;;;;;;3.70;nan;98396.78;5034310;28;20308;-72
2022/03/12 06:07:49;;;;;;;9.43;6.80;;;;;;;3.72;nan;98402.69;5033998;28;20190;-73
2022/03/12 06:10:37;;;;;;;9.83;6.90;;;;;;;3.78;nan;98407.25;5034111;28;20260;-73
2022/03/12 06:13:06;;;;;;;10.03;7.37;;;;;;;3.78;nan;98409.88;5034377;28;20290;-72
2022/03/12 06:15:38;;;;;;;11.23;6.87;;;;;;;3.81;nan;98410.41;5034323;28;20296;-72
2022/03/12 06:18:05;;;;;;;8.67;6.37;;;;;;;3.82;nan;98409.41;5034047;28;20644;-72
2022/03/12 06:20:33;;;;;;;8.60;6.50;;;;;;;3.80;nan;98415.81;5033942;28;20664;-72
2022/03/12 06:22:59;;;;;;;12.67;7.13;;;;;;;3.90;nan;98412.00;5033924;28;20206;-72
2022/03/12 06:25:25;;;;;;;7.63;6.70;;;;;;;3.90;nan;98409.38;5034030;28;20253;-73
2022/03/12 06:27:54;;;;;;;11.00;6.63;;;;;;;4.02;nan;98407.22;5033770;28;20210;-72
2022/03/12 06:30:23;;;;;;;9.07;6.10;;;;;;;4.03;nan;98406.22;5033181;28;20210;-73
2022/03/12 06:32:50;;;;;;;9.80;6.40;;;;;;;4.01;nan;98416.06;5033542;28;20236;-72
2022/03/12 06:35:17;;;;;;;9.23;7.00;;;;;;;4.09;nan;98414.25;5033124;28;20592;-72
2022/03/12 06:37:44;;;;;;;8.47;6.37;;;;;;;4.18;nan;98422.94;5033746;28;20571;-72
2022/03/12 06:40:14;;;;;;;10.63;6.30;;;;;;;4.18;nan;98417.66;5033428;28;20563;-72
2022/03/12 06:42:48;;;;;;;7.53;6.20;;;;;;;4.23;nan;98426.69;5033871;28;20195;-72
2022/03/12 06:45:15;;;;;;;9.87;6.07;;;;;;;4.32;nan;98420.41;5033201;28;20641;-72
2022/03/12 06:47:44;;;;;;;8.33;6.60;;;;;;;4.16;nan;98427.56;5033908;28;20314;-72
2022/03/12 06:50:13;;;;;;;7.37;6.13;;;;;;;4.24;nan;98420.44;5033786;28;20202;-72
2022/03/12 06:52:43;;;;;;;10.73;6.60;;;;;;;4.30;nan;98421.59;5033205;28;20683;-72
2022/03/12 06:55:10;;;;;;;10.27;6.53;;;;;;;4.27;nan;98421.91;5033064;28;20238;-72
2022/03/12 06:57:38;;;;;;;9.33;6.47;;;;;;;4.26;nan;98418.47;5033556;28;20297;-73
2022/03/12 07:00:13;;;;;;;11.83;6.93;;;;;;;4.24;nan;98417.81;5033204;28;20206;-72
2022/03/12 07:02:40;;;;;;;8.77;6.10;;;;;;;4.27;nan;98435.91;5033275;28;20192;-72
2022/03/12 07:05:06;;;;;;;8.23;6.00;;;;;;;4.31;nan;98428.47;5033325;28;20230;-72
2022/03/12 07:07:33;;;;;;;7.70;6.40;;;;;;;4.34;nan;98433.41;5033582;28;20298;-72
2022/03/12 07:09:59;;;;;;;10.93;6.90;;;;;;;4.36;nan;98432.25;5033408;28;20232;-72
2022/03/12 07:12:26;;;;;;;11.53;6.50;;;;;;;4.38;nan;98435.50;5034061;28;20212;-72
2022/03/12 07:14:53;;;;;;;9.67;6.63;;;;;;;4.41;nan;98440.44;5033134;28;20230;-73
2022/03/12 07:17:19;;;;;;;9.13;7.00;;;;;;;4.43;nan;98435.03;5033198;28;20198;-72
2022/03/12 07:19:45;;;;;;;9.30;7.20;;;;;;;4.54;nan;98438.09;5033426;28;20214;-72
2022/03/12 07:22:12;;;;;;;8.67;7.03;;;;;;;4.52;nan;98431.34;5033043;28;20209;-72
2022/03/12 07:24:38;;;;;;;10.93;7.20;;;;;;;4.70;nan;98432.72;5032950;28;20734;-72
2022/03/12 07:27:05;;;;;;;9.53;6.27;;;;;;;4.72;nan;98437.81;5033241;28;20323;-72
2022/03/12 07:29:32;;;;;;;9.57;6.77;;;;;;;4.74;nan;98436.66;5033041;28;20206;-72
2022/03/12 07:31:58;;;;;;;9.73;7.00;;;;;;;4.80;nan;98445.69;5034012;28;20205;-72
2022/03/12 07:34:25;;;;;;;12.13;6.87;;;;;;;4.87;nan;98444.00;5033249;28;20249;-72
2022/03/12 07:36:51;;;;;;;10.33;6.70;;;;;;;4.83;nan;98448.78;5032955;28;20656;-72
2022/03/12 07:39:18;;;;;;;9.20;6.43;;;;;;;4.92;nan;98444.28;5033093;28;20212;-72
2022/03/12 07:41:45;;;;;;;9.97;6.77;;;;;;;4.94;nan;98442.31;5035572;28;20210;-72
2022/03/12 07:44:11;;;;;;;12.20;8.03;;;;;;;4.96;nan;98448.22;5036740;28;20232;-72
2022/03/12 07:46:37;;;;;;;11.60;7.27;;;;;;;5.20;nan;98450.72;5036729;28;20688;-72
2022/03/12 07:49:04;;;;;;;13.40;7.37;;;;;;;5.19;nan;98446.41;5037032;28;20206;-72
2022/03/12 07:51:32;;;;;;;10.47;7.47;;;;;;;5.26;nan;98455.28;5037048;28;20202;-72
2022/03/12 07:54:00;;;;;;;9.27;7.23;;;;;;;5.17;nan;98451.06;5036486;28;20234;-72
2022/03/12 07:56:27;;;;;;;9.77;7.27;;;;;;;5.15;nan;98453.84;5036902;28;20210;-72
2022/03/12 07:58:55;;;;;;;10.57;7.60;;;;;;;5.17;nan;98448.41;5036999;28;20556;-72
2022/03/12 08:01:22;;;;;;;9.27;6.60;;;;;;;5.37;nan;98454.84;5037270;28;20256;-72
2022/03/12 08:03:48;;;;;;;9.97;7.17;;;;;;;5.48;nan;98449.19;5036734;28;20226;-72
2022/03/12 08:06:20;;;;;;;13.60;7.27;;;;;;;5.48;nan;98451.81;5036517;28;20230;-72
2022/03/12 08:08:46;;;;;;;10.27;6.87;;;;;;;5.47;nan;98444.91;5036362;28;20201;-72
2022/03/12 08:11:29;;;;;;;10.70;6.83;;;;;;;5.51;nan;98448.81;5036415;28;20289;-72
2022/03/12 08:14:03;;;;;;;9.27;7.37;;;;;;;5.61;nan;98439.66;5036508;28;20265;-73
2022/03/12 08:16:31;;;;;;;8.97;7.60;;;;;;;5.67;nan;98431.03;5037083;28;20222;-72
2022/03/12 08:18:58;;;;;;;12.20;7.43;;;;;;;5.70;nan;98433.31;5036104;28;20252;-72
2022/03/12 08:21:25;;;;;;;9.73;7.17;;;;;;;5.86;nan;98429.72;5036375;28;20213;-72
2022/03/12 08:23:52;;;;;;;8.47;7.13;;;;;;;5.97;nan;98438.00;5035989;28;20233;-72
2022/03/12 08:26:19;;;;;;;10.23;7.23;;;;;;;6.14;nan;98442.13;5035800;28;20229;-72
2022/03/12 08:28:47;;;;;;;8.30;7.00;;;;;;;6.28;nan;98443.13;5036584;28;20208;-72
2022/03/12 08:31:13;;;;;;;16.20;7.30;;;;;;;6.33;nan;98438.94;5035897;28;20217;-72
2022/03/12 08:33:40;;;;;;;10.40;7.87;;;;;;;6.29;nan;98442.13;5035996;28;20233;-72
2022/03/12 08:36:07;;;;;;;9.47;7.27;;;;;;;6.33;nan;98444.22;5035939;28;20206;-73
2022/03/12 08:38:35;;;;;;;11.67;7.57;;;;;;;6.37;nan;98444.66;5035546;28;20564;-72
2022/03/12 08:41:05;;;;;;;11.93;8.23;;;;;;;6.39;nan;98440.88;5035634;28;20251;-73
2022/03/12 08:43:32;;;;;;;10.40;7.43;;;;;;;6.69;nan;98439.00;5035662;28;20217;-72
2022/03/12 08:45:58;;;;;;;11.13;8.00;;;;;;;6.66;nan;98442.00;5035559;28;20209;-73
2022/03/12 08:48:25;;;;;;;15.00;8.93;;;;;;;6.76;nan;98445.19;5035659;28;20260;-72
2022/03/12 08:50:51;;;;;;;12.90;9.10;;;;;;;7.06;nan;98444.91;5035727;28;20202;-72
2022/03/12 08:53:17;;;;;;;14.47;8.93;;;;;;;7.16;nan;98442.81;5034605;28;20206;-72
2022/03/12 08:55:44;;;;;;;14.00;8.47;;;;;;;7.09;nan;98449.00;5035368;28;20214;-73
2022/03/12 08:58:11;;;;;;;12.70;9.10;;;;;;;7.16;nan;98448.09;5035765;28;20210;-72
2022/03/12 09:00:38;;;;;;;10.40;8.27;;;;;;;7.27;nan;98444.94;5035327;28;20209;-72
2022/03/12 09:03:05;;;;;;;13.33;8.60;;;;;;;7.11;nan;98449.66;5035331;28;20660;-72
2022/03/12 09:05:32;;;;;;;15.27;8.67;;;;;;;7.41;nan;98444.03;5035322;28;20787;-72
2022/03/12 09:07:59;;;;;;;10.53;7.87;;;;;;;7.59;nan;98446.22;5035592;28;20253;-72
2022/03/12 09:10:25;;;;;;;11.33;7.63;;;;;;;7.57;nan;98440.31;5035438;28;20210;-72
2022/03/12 09:12:53;;;;;;;15.63;8.47;;;;;;;7.63;nan;98442.19;5035214;28;20217;-72
2022/03/12 09:15:22;;;;;;;13.13;8.60;;;;;;;7.89;nan;98437.94;5035355;28;20226;-73
2022/03/12 09:17:49;;;;;;;11.43;7.97;;;;;;;7.90;nan;98441.41;5035027;28;20205;-73
2022/03/12 09:20:15;;;;;;;12.70;9.33;;;;;;;7.91;nan;98437.72;5034861;28;20210;-73
2022/03/12 09:22:42;;;;;;;10.53;9.03;;;;;;;7.79;nan;98444.59;5035037;28;20216;-73
2022/03/12 09:25:11;;;;;;;12.73;9.13;;;;;;;7.98;nan;98438.63;5035714;28;20232;-73
2022/03/12 09:27:38;;;;;;;14.10;9.27;;;;;;;7.96;nan;98444.09;5034554;28;20316;-73
2022/03/12 09:30:07;;;;;;;13.37;8.90;;;;;;;8.28;nan;98442.72;5034954;28;20212;-73
2022/03/12 09:32:34;;;;;;;11.70;9.33;;;;;;;8.41;nan;98454.19;5035123;28;20210;-73
2022/03/12 09:35:00;;;;;;;10.77;8.90;;;;;;;8.52;nan;98453.66;5034688;28;20222;-73
2022/03/12 09:37:27;;;;;;;11.93;9.37;;;;;;;8.56;nan;98448.78;5035247;28;20201;-73
2022/03/12 09:39:53;;;;;;;10.80;9.10;;;;;;;8.67;nan;98445.56;5034989;28;20213;-73
2022/03/12 09:42:20;;;;;;;14.17;9.43;;;;;;;8.69;nan;98444.34;5034736;28;20233;-73
2022/03/12 09:44:47;;;;;;;14.33;10.07;;;;;;;8.76;nan;98444.38;5034372;28;20738;-73
2022/03/12 09:47:14;;;;;;;14.93;9.93;;;;;;;9.07;nan;98442.03;5034714;28;20226;-73
2022/03/12 09:49:41;;;;;;;12.73;9.10;;;;;;;8.94;nan;98440.16;5034687;28;20297;-73
2022/03/12 09:52:09;;;;;;;16.27;10.07;;;;;;;9.13;nan;98441.22;5034141;28;20213;-73
2022/03/12 09:54:35;;;;;;;15.07;10.37;;;;;;;9.32;nan;98425.34;5033994;28;20238;-72
2022/03/12 09:57:02;;;;;;;16.43;10.50;;;;;;;9.47;nan;98427.84;5034663;28;20202;-73
2022/03/12 09:59:29;;;;;;;13.87;10.57;;;;;;;9.67;nan;98426.00;5034572;28;20202;-72
2022/03/12 10:01:55;;;;;;;13.00;9.43;;;;;;;9.81;nan;98425.81;5034524;28;20209;-73
2022/03/12 10:04:22;;;;;;;16.20;10.23;;;;;;;9.75;nan;98426.63;5034191;28;20225;-73
2022/03/12 10:06:49;;;;;;;14.03;10.50;;;;;;;9.90;nan;98423.75;5033833;28;20704;-73
2022/03/12 10:09:16;;;;;;;13.67;10.10;;;;;;;9.81;nan;98423.16;5034473;28;20232;-73
2022/03/12 10:11:44;;;;;;;11.77;9.53;;;;;;;9.96;nan;98422.94;5033709;28;20214;-73
2022/03/12 10:14:10;;;;;;;11.07;9.87;;;;;;;9.75;nan;98420.50;5033671;28;20317;-73
2022/03/12 10:16:37;;;;;;;11.77;9.57;;;;;;;9.81;nan;98424.97;5033905;28;20213;-73
2022/03/12 10:19:03;;;;;;;12.57;10.10;;;;;;;9.95;nan;98419.47;5033960;28;20240;-73
2022/03/12 10:21:32;;;;;;;14.03;10.20;;;;;;;10.08;nan;98413.34;5034141;28;20221;-73
2022/03/12 10:23:59;;;;;;;13.07;10.03;;;;;;;10.18;nan;98414.53;5033954;28;20320;-73
2022/03/12 10:26:26;;;;;;;13.60;10.80;;;;;;;10.12;nan;98412.72;5033969;28;20289;-73
2022/03/12 10:28:52;;;;;;;12.80;10.23;;;;;;;10.55;nan;98413.03;5033501;28;20699;-73
2022/03/12 10:31:19;;;;;;;12.50;10.33;;;;;;;10.75;nan;98409.25;5033659;28;20209;-72
2022/03/12 10:33:47;;;;;;;16.27;11.77;;;;;;;10.50;nan;98399.56;5033580;28;20295;-73
2022/03/12 10:36:16;;;;;;;14.97;10.30;;;;;;;10.69;nan;98404.78;5032901;28;20703;-73
2022/03/12 10:38:48;;;;;;;14.73;10.77;;;;;;;10.62;nan;98398.69;5033091;28;20206;-73
2022/03/12 10:41:16;;;;;;;13.93;9.97;;;;;;;10.84;nan;98399.19;5033658;28;20209;-73
2022/03/12 10:43:52;;;;;;;13.63;11.10;;;;;;;10.73;nan;98386.56;5033093;28;20229;-73
2022/03/12 10:46:23;;;;;;;16.07;11.00;;;;;;;11.02;nan;98394.81;5033476;28;20264;-72
2022/03/12 10:48:56;;;;;;;16.63;11.33;;;;;;;11.07;nan;98390.69;5033499;28;20194;-73
2022/03/12 10:51:25;;;;;;;14.57;11.07;;;;;;;11.44;nan;98376.50;5033192;28;20214;-73
2022/03/12 10:53:52;;;;;;;13.57;10.63;;;;;;;11.39;nan;98381.69;5033266;28;20229;-73
2022/03/12 10:56:19;;;;;;;14.90;10.43;;;;;;;11.67;nan;98380.22;5033516;28;20209;-73
2022/03/12 10:58:46;;;;;;;16.30;11.03;;;;;;;11.77;nan;98379.75;5033089;28;20730;-73
2022/03/12 11:01:12;;;;;;;15.67;10.63;;;;;;;11.97;nan;98381.19;5033274;28;20557;-73
2022/03/12 11:03:38;;;;;;;12.80;10.60;;;;;;;11.77;nan;98380.56;5033222;28;20260;-73
2022/03/12 11:06:08;;;;;;;13.43;10.00;;;;;;;11.97;nan;98381.19;5032919;28;20297;-73
2022/03/12 11:08:35;;;;;;;18.03;10.37;;;;;;;12.16;nan;98382.03;5033337;28;20226;-73
2022/03/12 11:11:12;;;;;;;12.07;10.50;;;;;;;12.24;nan;98376.41;5032704;28;20208;-72
2022/03/12 11:13:48;;;;;;;13.47;10.27;;;;;;;12.24;nan;98369.22;5033535;28;20229;-73
2022/03/12 11:16:24;;;;;;;13.60;10.33;;;;;;;12.34;nan;98368.72;5032724;28;20233;-73
2022/03/12 11:18:53;;;;;;;12.30;9.77;;;;;;;12.09;nan;98368.78;5032922;28;20656;-73
2022/03/12 11:21:40;;;;;;;12.23;10.20;;;;;;;11.90;nan;98364.47;5032899;28;20210;-73
2022/03/12 11:24:23;;;;;;;11.87;10.23;;;;;;;12.01;nan;98368.25;5032638;28;20281;-73
2022/03/12 11:26:55;;;;;;;12.33;10.53;;;;;;;12.18;nan;98362.13;5033061;28;20223;-72
2022/03/12 11:29:25;;;;;;;12.77;10.07;;;;;;;12.39;nan;98361.66;5033054;28;20732;-72
2022/03/12 11:31:57;;;;;;;12.53;10.00;;;;;;;12.68;nan;98360.91;5032622;28;20222;-73
2022/03/12 11:34:32;;;;;;;14.27;11.40;;;;;;;12.64;nan;98358.91;5033230;28;20234;-73
2022/03/12 11:37:06;;;;;;;13.13;11.73;;;;;;;12.51;nan;98354.56;5032500;28;20732;-73
2022/03/12 11:39:36;;;;;;;14.17;11.23;;;;;;;12.69;nan;98349.22;5032770;28;20190;-73
2022/03/12 11:42:11;;;;;;;14.60;10.97;;;;;;;12.76;nan;98338.44;5032655;28;20285;-73
2022/03/12 11:44:42;;;;;;;13.80;11.53;;;;;;;12.50;nan;98336.13;5033050;28;20292;-73
2022/03/12 11:47:09;;;;;;;142.80;87.60;;;;;;;12.51;nan;98337.75;5032891;28;20326;-73
2022/03/12 11:49:36;;;;;;;38.67;19.70;;;;;;;12.56;nan;98333.38;5033100;28;20210;-73
2022/03/12 11:52:03;;;;;;;14.60;11.13;;;;;;;12.35;nan;98333.03;5033127;28;20261;-73
2022/03/12 11:54:30;;;;;;;13.77;11.33;;;;;;;12.43;nan;98335.41;5032778;28;20235;-73